Christiana, PA (17509)

1:55 AM EST on February 10, 2016 (GMT -0500)
DEOS | | Change Station
CLOSE
Current Station
Personal Weather Station
Location: Atglen, PA
Elevation: 662 ft
Nearby Weather Stations

Elev 662 ft 39.92 °N, 75.99 °W | Updated 55 minutes ago

Overcast
Overcast
27 °F
Feels Like 19 °F
N
7
Wind Variable Wind from WNW
Gusts 9.0 mph

Today
High -- | Low -- °F
--% Chance of Precip.
Yesterday
High -- | Low -- °F
Precip. -- in
Pressure 29.61 in
Visibility 6.0 miles
Clouds Mostly Cloudy 700 ft
Overcast 1200 ft
Windchill 19 °F
Dew Point 27 °F
Humidity 100%
Rainfall in
Snow Depth Not available.
7:03 AM 5:33 PM
Waxing Crescent, 4% visible
METAR KMQS 100635Z AUTO 27005KT 6SM -UP BKN007 OVC012 M02/M02 A2961 RMK AO2
Pressure 29.61 in
Visibility 6.0 miles
Clouds Mostly Cloudy 700 ft
Overcast 1200 ft
Windchill 19 °F
Dew Point 27 °F
Humidity 100%
Rainfall in
Snow Depth Not available.
7:03 AM 5:33 PM
Waxing Crescent, 4% visible
METAR KMQS 100635Z AUTO 27005KT 6SM -UP BKN007 OVC012 M02/M02 A2961 RMK AO2

10-Day Weather Forecast

Almanac

Astronomy

Feb. 10, 2016 Rise Set
Actual Time
Civil Twilight
Nautical Twilight
Astronomical Twilight
Moon
Length of Visible Light
Length of Day
Tomorrow will be .
, % of the Moon is Illuminated

Today's Extremes

State Highs State Lows

Community

WunderPhotos

Upload Photos

1,891,826 photos uploaded!

WunderBlog® & News

Nearby

Air Quality

  Air Quality AQ Index Pollutant
Not available.

Snow Depth

Station Depth Elevation

Earthquake Activity

City Distance Mag. Time & Date
Minimum magnitude displayed is 2.5.

Coastal Water Temperatures

Place Temperature

Stations

Nearby Weather Stations

Station Location Temp. Windchill Dew Point Humidity Wind Precip. Elev Updated Type
                   

Watches & Warnings

There are currently no watches in effect.